sensor_id;sensor_type;location;lat;lon;timestamp;P1;durP1;ratioP1;P2;durP2;ratioP2
18066;SDS011;9158;51.528;7.192;2022-10-16T00:00:29;3.40;;;2.47;;
18066;SDS011;9158;51.528;7.192;2022-10-16T00:01:04;3.15;;;2.85;;
18066;SDS011;9158;51.528;7.192;2022-10-16T00:01:37;3.20;;;2.97;;
18066;SDS011;9158;51.528;7.192;2022-10-16T00:02:09;4.20;;;2.50;;
18066;SDS011;9158;51.528;7.192;2022-10-16T00:02:39;7.90;;;3.20;;
18066;SDS011;9158;51.528;7.192;2022-10-16T00:03:11;3.45;;;2.92;;
18066;SDS011;9158;51.528;7.192;2022-10-16T00:03:43;2.80;;;2.60;;
18066;SDS011;9158;51.528;7.192;2022-10-16T00:04:14;4.95;;;3.03;;
18066;SDS011;9158;51.528;7.192;2022-10-16T00:04:46;6.50;;;3.10;;
18066;SDS011;9158;51.528;7.192;2022-10-16T00:05:17;5.30;;;3.20;;
18066;SDS011;9158;51.528;7.192;2022-10-16T00:05:48;3.20;;;2.90;;
18066;SDS011;9158;51.528;7.192;2022-10-16T00:06:21;3.03;;;2.83;;
18066;SDS011;9158;51.528;7.192;2022-10-16T00:06:53;4.38;;;3.80;;
18066;SDS011;9158;51.528;7.192;2022-10-16T00:07:24;3.40;;;3.00;;
18066;SDS011;9158;51.528;7.192;2022-10-16T00:07:55;5.00;;;3.03;;
18066;SDS011;9158;51.528;7.192;2022-10-16T00:08:27;5.65;;;2.88;;
18066;SDS011;9158;51.528;7.192;2022-10-16T00:08:58;3.85;;;2.50;;
18066;SDS011;9158;51.528;7.192;2022-10-16T00:09:29;8.73;;;3.30;;
18066;SDS011;9158;51.528;7.192;2022-10-16T00:10:01;4.78;;;3.22;;
18066;SDS011;9158;51.528;7.192;2022-10-16T00:10:33;4.30;;;3.70;;
18066;SDS011;9158;51.528;7.192;2022-10-16T00:11:05;4.30;;;2.38;;
18066;SDS011;9158;51.528;7.192;2022-10-16T00:11:39;3.15;;;2.10;;
18066;SDS011;9158;51.528;7.192;2022-10-16T00:12:11;3.20;;;2.90;;
18066;SDS011;9158;51.528;7.192;2022-10-16T00:12:42;3.55;;;2.58;;
18066;SDS011;9158;51.528;7.192;2022-10-16T00:13:13;3.80;;;2.60;;
18066;SDS011;9158;51.528;7.192;2022-10-16T00:13:47;3.67;;;2.50;;
18066;SDS011;9158;51.528;7.192;2022-10-16T00:14:20;8.40;;;3.17;;
18066;SDS011;9158;51.528;7.192;2022-10-16T00:14:51;4.43;;;2.80;;
18066;SDS011;9158;51.528;7.192;2022-10-16T00:15:23;7.25;;;2.80;;
18066;SDS011;9158;51.528;7.192;2022-10-16T00:15:54;3.17;;;2.88;;
18066;SDS011;9158;51.528;7.192;2022-10-16T00:16:26;2.47;;;2.05;;
18066;SDS011;9158;51.528;7.192;2022-10-16T00:16:59;5.60;;;2.67;;
18066;SDS011;9158;51.528;7.192;2022-10-16T00:17:30;4.23;;;2.80;;
18066;SDS011;9158;51.528;7.192;2022-10-16T00:18:02;3.45;;;2.75;;
18066;SDS011;9158;51.528;7.192;2022-10-16T00:18:34;4.95;;;2.88;;
18066;SDS011;9158;51.528;7.192;2022-10-16T00:19:06;2.53;;;2.20;;
18066;SDS011;9158;51.528;7.192;2022-10-16T00:19:38;3.15;;;2.85;;
18066;SDS011;9158;51.528;7.192;2022-10-16T00:20:09;3.80;;;2.80;;
18066;SDS011;9158;51.528;7.192;2022-10-16T00:21:01;4.43;;;2.75;;
18066;SDS011;9158;51.528;7.192;2022-10-16T00:21:54;9.05;;;2.85;;
18066;SDS011;9158;51.528;7.192;2022-10-16T00:22:44;2.58;;;2.38;;
18066;SDS011;9158;51.528;7.192;2022-10-16T00:23:15;2.83;;;2.63;;
18066;SDS011;9158;51.528;7.192;2022-10-16T00:23:46;3.63;;;2.90;;
18066;SDS011;9158;51.528;7.192;2022-10-16T00:24:21;3.45;;;2.70;;
18066;SDS011;9158;51.528;7.192;2022-10-16T00:24:53;3.10;;;2.60;;
18066;SDS011;9158;51.528;7.192;2022-10-16T00:25:24;2.53;;;2.33;;
18066;SDS011;9158;51.528;7.192;2022-10-16T00:25:56;3.50;;;2.80;;
18066;SDS011;9158;51.528;7.192;2022-10-16T00:26:29;3.30;;;2.88;;
18066;SDS011;9158;51.528;7.192;2022-10-16T00:27:01;3.70;;;3.15;;
18066;SDS011;9158;51.528;7.192;2022-10-16T00:27:32;3.42;;;2.55;;
18066;SDS011;9158;51.528;7.192;2022-10-16T00:28:04;3.70;;;3.20;;
18066;SDS011;9158;51.528;7.192;2022-10-16T00:28:35;3.50;;;2.47;;
18066;SDS011;9158;51.528;7.192;2022-10-16T00:29:07;3.22;;;3.03;;
18066;SDS011;9158;51.528;7.192;2022-10-16T00:29:39;3.13;;;2.70;;
18066;SDS011;9158;51.528;7.192;2022-10-16T00:30:10;3.08;;;2.38;;
18066;SDS011;9158;51.528;7.192;2022-10-16T00:30:41;3.15;;;2.20;;
18066;SDS011;9158;51.528;7.192;2022-10-16T00:31:12;3.53;;;3.00;;
18066;SDS011;9158;51.528;7.192;2022-10-16T00:31:44;5.43;;;2.78;;
18066;SDS011;9158;51.528;7.192;2022-10-16T00:32:15;3.63;;;2.58;;
18066;SDS011;9158;51.528;7.192;2022-10-16T00:32:46;4.83;;;2.80;;
18066;SDS011;9158;51.528;7.192;2022-10-16T00:33:18;3.05;;;2.55;;
18066;SDS011;9158;51.528;7.192;2022-10-16T00:33:49;2.40;;;2.20;;
18066;SDS011;9158;51.528;7.192;2022-10-16T00:34:21;4.53;;;2.60;;
18066;SDS011;9158;51.528;7.192;2022-10-16T00:34:53;3.30;;;2.65;;
18066;SDS011;9158;51.528;7.192;2022-10-16T00:35:24;4.43;;;2.67;;
18066;SDS011;9158;51.528;7.192;2022-10-16T00:35:57;3.95;;;2.30;;
18066;SDS011;9158;51.528;7.192;2022-10-16T00:36:28;3.50;;;2.50;;
18066;SDS011;9158;51.528;7.192;2022-10-16T00:37:02;4.10;;;2.90;;
18066;SDS011;9158;51.528;7.192;2022-10-16T00:37:33;2.55;;;2.15;;
18066;SDS011;9158;51.528;7.192;2022-10-16T00:38:04;4.05;;;2.50;;
18066;SDS011;9158;51.528;7.192;2022-10-16T00:38:36;2.58;;;2.38;;
18066;SDS011;9158;51.528;7.192;2022-10-16T00:39:07;4.95;;;2.92;;
18066;SDS011;9158;51.528;7.192;2022-10-16T00:39:38;3.08;;;2.80;;
18066;SDS011;9158;51.528;7.192;2022-10-16T00:40:11;2.72;;;2.50;;
18066;SDS011;9158;51.528;7.192;2022-10-16T00:40:42;4.13;;;2.63;;
18066;SDS011;9158;51.528;7.192;2022-10-16T00:41:14;2.50;;;2.30;;
18066;SDS011;9158;51.528;7.192;2022-10-16T00:41:47;3.00;;;2.28;;
18066;SDS011;9158;51.528;7.192;2022-10-16T00:42:19;3.85;;;2.55;;
18066;SDS011;9158;51.528;7.192;2022-10-16T00:42:50;2.67;;;2.47;;
18066;SDS011;9158;51.528;7.192;2022-10-16T00:43:38;3.45;;;2.88;;
18066;SDS011;9158;51.528;7.192;2022-10-16T00:45:17;3.50;;;2.00;;
18066;SDS011;9158;51.528;7.192;2022-10-16T00:45:48;4.87;;;2.70;;
18066;SDS011;9158;51.528;7.192;2022-10-16T00:46:20;2.57;;;2.23;;
18066;SDS011;9158;51.528;7.192;2022-10-16T00:46:53;6.32;;;2.65;;
18066;SDS011;9158;51.528;7.192;2022-10-16T00:47:26;5.82;;;2.40;;
18066;SDS011;9158;51.528;7.192;2022-10-16T00:47:59;3.45;;;2.00;;
18066;SDS011;9158;51.528;7.192;2022-10-16T00:48:31;3.08;;;2.40;;
18066;SDS011;9158;51.528;7.192;2022-10-16T00:49:04;3.37;;;2.87;;
18066;SDS011;9158;51.528;7.192;2022-10-16T00:49:36;5.55;;;2.85;;
18066;SDS011;9158;51.528;7.192;2022-10-16T00:50:09;3.85;;;2.53;;
18066;SDS011;9158;51.528;7.192;2022-10-16T00:50:43;2.53;;;2.33;;
18066;SDS011;9158;51.528;7.192;2022-10-16T00:51:14;2.15;;;1.95;;
18066;SDS011;9158;51.528;7.192;2022-10-16T00:51:47;3.58;;;2.60;;
18066;SDS011;9158;51.528;7.192;2022-10-16T00:52:21;5.20;;;2.92;;
18066;SDS011;9158;51.528;7.192;2022-10-16T00:52:52;3.70;;;2.75;;
18066;SDS011;9158;51.528;7.192;2022-10-16T00:53:25;4.03;;;2.35;;
18066;SDS011;9158;51.528;7.192;2022-10-16T00:53:57;2.55;;;2.35;;
18066;SDS011;9158;51.528;7.192;2022-10-16T00:54:29;2.95;;;2.40;;
18066;SDS011;9158;51.528;7.192;2022-10-16T00:55:03;2.85;;;2.65;;
18066;SDS011;9158;51.528;7.192;2022-10-16T00:55:36;2.75;;;2.10;;
18066;SDS011;9158;51.528;7.192;2022-10-16T00:56:07;5.85;;;2.72;;
18066;SDS011;9158;51.528;7.192;2022-10-16T00:56:39;4.93;;;2.40;;
18066;SDS011;9158;51.528;7.192;2022-10-16T00:57:11;3.08;;;2.47;;
18066;SDS011;9158;51.528;7.192;2022-10-16T00:57:42;3.10;;;2.90;;
18066;SDS011;9158;51.528;7.192;2022-10-16T00:58:15;5.75;;;2.65;;
18066;SDS011;9158;51.528;7.192;2022-10-16T00:58:46;3.22;;;2.92;;
18066;SDS011;9158;51.528;7.192;2022-10-16T00:59:18;8.02;;;3.33;;
18066;SDS011;9158;51.528;7.192;2022-10-16T00:59:51;5.00;;;2.67;;
18066;SDS011;9158;51.528;7.192;2022-10-16T01:00:24;2.90;;;2.40;;
18066;SDS011;9158;51.528;7.192;2022-10-16T01:00:56;2.97;;;2.53;;
18066;SDS011;9158;51.528;7.192;2022-10-16T01:01:28;3.05;;;2.20;;
18066;SDS011;9158;51.528;7.192;2022-10-16T01:02:00;2.95;;;2.75;;
18066;SDS011;9158;51.528;7.192;2022-10-16T01:02:31;3.10;;;2.10;;
18066;SDS011;9158;51.528;7.192;2022-10-16T01:03:53;4.50;;;2.95;;
18066;SDS011;9158;51.528;7.192;2022-10-16T01:04:24;5.70;;;3.40;;
18066;SDS011;9158;51.528;7.192;2022-10-16T01:04:57;3.65;;;2.25;;
18066;SDS011;9158;51.528;7.192;2022-10-16T01:05:30;4.38;;;3.03;;
18066;SDS011;9158;51.528;7.192;2022-10-16T01:06:09;2.20;;;1.83;;
18066;SDS011;9158;51.528;7.192;2022-10-16T01:06:51;4.70;;;2.70;;
18066;SDS011;9158;51.528;7.192;2022-10-16T01:07:34;2.20;;;2.00;;
18066;SDS011;9158;51.528;7.192;2022-10-16T01:08:12;2.03;;;1.90;;
18066;SDS011;9158;51.528;7.192;2022-10-16T01:08:54;2.40;;;1.75;;
18066;SDS011;9158;51.528;7.192;2022-10-16T01:09:34;2.08;;;1.85;;
18066;SDS011;9158;51.528;7.192;2022-10-16T01:10:14;2.58;;;2.25;;
18066;SDS011;9158;51.528;7.192;2022-10-16T01:10:55;5.72;;;2.08;;
18066;SDS011;9158;51.528;7.192;2022-10-16T01:11:31;3.45;;;2.17;;
18066;SDS011;9158;51.528;7.192;2022-10-16T01:12:09;1.85;;;1.70;;
18066;SDS011;9158;51.528;7.192;2022-10-16T01:12:45;4.78;;;2.10;;
18066;SDS011;9158;51.528;7.192;2022-10-16T01:13:24;3.30;;;1.98;;
18066;SDS011;9158;51.528;7.192;2022-10-16T01:13:58;2.13;;;1.50;;
18066;SDS011;9158;51.528;7.192;2022-10-16T01:14:37;3.58;;;2.20;;
18066;SDS011;9158;51.528;7.192;2022-10-16T01:15:17;2.20;;;2.00;;
18066;SDS011;9158;51.528;7.192;2022-10-16T01:15:54;1.92;;;1.73;;
18066;SDS011;9158;51.528;7.192;2022-10-16T01:16:31;2.25;;;1.50;;
18066;SDS011;9158;51.528;7.192;2022-10-16T01:17:10;3.05;;;2.28;;
18066;SDS011;9158;51.528;7.192;2022-10-16T01:17:47;2.00;;;1.88;;
18066;SDS011;9158;51.528;7.192;2022-10-16T01:18:24;1.98;;;1.85;;
18066;SDS011;9158;51.528;7.192;2022-10-16T01:19:05;1.70;;;1.60;;
18066;SDS011;9158;51.528;7.192;2022-10-16T01:19:50;1.85;;;1.75;;
18066;SDS011;9158;51.528;7.192;2022-10-16T01:20:33;2.58;;;1.70;;
18066;SDS011;9158;51.528;7.192;2022-10-16T01:21:08;4.00;;;1.80;;
18066;SDS011;9158;51.528;7.192;2022-10-16T01:21:43;2.88;;;1.27;;
18066;SDS011;9158;51.528;7.192;2022-10-16T01:22:18;2.40;;;1.75;;
18066;SDS011;9158;51.528;7.192;2022-10-16T01:23:56;6.78;;;2.50;;
18066;SDS011;9158;51.528;7.192;2022-10-16T01:24:35;1.80;;;1.70;;
18066;SDS011;9158;51.528;7.192;2022-10-16T01:25:11;2.85;;;1.90;;
18066;SDS011;9158;51.528;7.192;2022-10-16T01:25:59;1.70;;;1.60;;
18066;SDS011;9158;51.528;7.192;2022-10-16T01:27:45;3.70;;;1.65;;
18066;SDS011;9158;51.528;7.192;2022-10-16T01:28:17;2.58;;;1.42;;
18066;SDS011;9158;51.528;7.192;2022-10-16T01:28:53;1.40;;;1.30;;
18066;SDS011;9158;51.528;7.192;2022-10-16T01:29:28;3.45;;;2.10;;
18066;SDS011;9158;51.528;7.192;2022-10-16T01:30:06;2.20;;;2.03;;
18066;SDS011;9158;51.528;7.192;2022-10-16T01:30:40;1.40;;;1.17;;
18066;SDS011;9158;51.528;7.192;2022-10-16T01:31:15;1.35;;;0.90;;
18066;SDS011;9158;51.528;7.192;2022-10-16T01:31:50;2.78;;;1.30;;
18066;SDS011;9158;51.528;7.192;2022-10-16T01:32:28;1.60;;;1.50;;
18066;SDS011;9158;51.528;7.192;2022-10-16T01:33:06;3.65;;;1.48;;
18066;SDS011;9158;51.528;7.192;2022-10-16T01:33:45;1.40;;;1.10;;
18066;SDS011;9158;51.528;7.192;2022-10-16T01:34:21;1.85;;;1.33;;
18066;SDS011;9158;51.528;7.192;2022-10-16T01:35:01;4.03;;;1.50;;
18066;SDS011;9158;51.528;7.192;2022-10-16T01:35:36;2.47;;;1.30;;
18066;SDS011;9158;51.528;7.192;2022-10-16T01:36:12;2.35;;;1.70;;
18066;SDS011;9158;51.528;7.192;2022-10-16T01:36:47;1.75;;;1.45;;
18066;SDS011;9158;51.528;7.192;2022-10-16T01:37:25;1.52;;;1.20;;
18066;SDS011;9158;51.528;7.192;2022-10-16T01:38:03;3.17;;;1.08;;
18066;SDS011;9158;51.528;7.192;2022-10-16T01:38:38;2.38;;;1.45;;
18066;SDS011;9158;51.528;7.192;2022-10-16T01:39:10;6.97;;;1.00;;
18066;SDS011;9158;51.528;7.192;2022-10-16T01:39:45;2.78;;;1.33;;
18066;SDS011;9158;51.528;7.192;2022-10-16T01:40:19;1.30;;;1.20;;
18066;SDS011;9158;51.528;7.192;2022-10-16T01:40:52;5.38;;;1.70;;
18066;SDS011;9158;51.528;7.192;2022-10-16T01:41:28;3.42;;;2.42;;
18066;SDS011;9158;51.528;7.192;2022-10-16T01:42:04;2.20;;;1.30;;
18066;SDS011;9158;51.528;7.192;2022-10-16T01:42:39;2.53;;;1.20;;
18066;SDS011;9158;51.528;7.192;2022-10-16T01:43:15;1.17;;;1.08;;
18066;SDS011;9158;51.528;7.192;2022-10-16T01:43:52;2.20;;;1.33;;
18066;SDS011;9158;51.528;7.192;2022-10-16T01:44:29;2.55;;;1.33;;
18066;SDS011;9158;51.528;7.192;2022-10-16T01:45:03;3.47;;;1.10;;
18066;SDS011;9158;51.528;7.192;2022-10-16T01:45:38;1.20;;;1.10;;
18066;SDS011;9158;51.528;7.192;2022-10-16T01:46:10;1.75;;;1.00;;
18066;SDS011;9158;51.528;7.192;2022-10-16T01:46:46;1.58;;;1.10;;
18066;SDS011;9158;51.528;7.192;2022-10-16T01:47:22;3.38;;;1.35;;
18066;SDS011;9158;51.528;7.192;2022-10-16T01:47:55;3.38;;;1.20;;
18066;SDS011;9158;51.528;7.192;2022-10-16T01:48:28;1.52;;;1.40;;
18066;SDS011;9158;51.528;7.192;2022-10-16T01:49:02;2.03;;;1.30;;
18066;SDS011;9158;51.528;7.192;2022-10-16T01:49:34;1.20;;;1.10;;
18066;SDS011;9158;51.528;7.192;2022-10-16T01:50:10;2.80;;;1.00;;
18066;SDS011;9158;51.528;7.192;2022-10-16T01:50:44;3.15;;;1.20;;
18066;SDS011;9158;51.528;7.192;2022-10-16T01:51:22;1.52;;;1.42;;
18066;SDS011;9158;51.528;7.192;2022-10-16T01:51:56;2.28;;;1.15;;
18066;SDS011;9158;51.528;7.192;2022-10-16T01:52:30;3.28;;;1.42;;
18066;SDS011;9158;51.528;7.192;2022-10-16T01:53:03;1.20;;;1.10;;
18066;SDS011;9158;51.528;7.192;2022-10-16T01:53:38;0.93;;;0.80;;
18066;SDS011;9158;51.528;7.192;2022-10-16T01:54:10;4.47;;;1.45;;
18066;SDS011;9158;51.528;7.192;2022-10-16T01:54:45;2.28;;;1.10;;
18066;SDS011;9158;51.528;7.192;2022-10-16T01:55:20;1.77;;;1.30;;
18066;SDS011;9158;51.528;7.192;2022-10-16T01:55:55;1.40;;;1.20;;
18066;SDS011;9158;51.528;7.192;2022-10-16T01:56:29;1.20;;;1.10;;
18066;SDS011;9158;51.528;7.192;2022-10-16T01:57:01;1.35;;;1.25;;
18066;SDS011;9158;51.528;7.192;2022-10-16T01:57:41;1.40;;;1.30;;
18066;SDS011;9158;51.528;7.192;2022-10-16T01:58:18;16.17;;;1.92;;
18066;SDS011;9158;51.528;7.192;2022-10-16T01:58:52;1.45;;;1.10;;
18066;SDS011;9158;51.528;7.192;2022-10-16T01:59:26;1.25;;;1.15;;
18066;SDS011;9158;51.528;7.192;2022-10-16T02:00:01;1.65;;;1.40;;
18066;SDS011;9158;51.528;7.192;2022-10-16T02:00:43;1.05;;;0.95;;
18066;SDS011;9158;51.528;7.192;2022-10-16T02:01:16;1.63;;;1.48;;
18066;SDS011;9158;51.528;7.192;2022-10-16T02:01:52;2.05;;;1.35;;
18066;SDS011;9158;51.528;7.192;2022-10-16T02:02:28;2.00;;;1.13;;
18066;SDS011;9158;51.528;7.192;2022-10-16T02:03:01;1.45;;;1.30;;
18066;SDS011;9158;51.528;7.192;2022-10-16T02:03:34;1.13;;;1.02;;
18066;SDS011;9158;51.528;7.192;2022-10-16T02:04:10;2.08;;;1.20;;
18066;SDS011;9158;51.528;7.192;2022-10-16T02:04:47;2.00;;;1.20;;
18066;SDS011;9158;51.528;7.192;2022-10-16T02:05:23;1.42;;;1.30;;
18066;SDS011;9158;51.528;7.192;2022-10-16T02:05:57;1.23;;;1.00;;
18066;SDS011;9158;51.528;7.192;2022-10-16T02:06:30;1.85;;;1.10;;
18066;SDS011;9158;51.528;7.192;2022-10-16T02:07:02;1.55;;;1.45;;
18066;SDS011;9158;51.528;7.192;2022-10-16T02:07:33;2.63;;;1.67;;
18066;SDS011;9158;51.528;7.192;2022-10-16T02:08:04;1.67;;;1.30;;
18066;SDS011;9158;51.528;7.192;2022-10-16T02:08:36;2.00;;;1.73;;
18066;SDS011;9158;51.528;7.192;2022-10-16T02:09:09;1.73;;;1.60;;
18066;SDS011;9158;51.528;7.192;2022-10-16T02:09:40;1.83;;;1.35;;
18066;SDS011;9158;51.528;7.192;2022-10-16T02:10:13;2.42;;;1.50;;
18066;SDS011;9158;51.528;7.192;2022-10-16T02:10:44;1.63;;;1.42;;
18066;SDS011;9158;51.528;7.192;2022-10-16T02:11:16;5.10;;;1.80;;
18066;SDS011;9158;51.528;7.192;2022-10-16T02:11:47;3.83;;;2.10;;
18066;SDS011;9158;51.528;7.192;2022-10-16T02:12:24;2.13;;;1.75;;
18066;SDS011;9158;51.528;7.192;2022-10-16T02:12:58;2.90;;;2.13;;
18066;SDS011;9158;51.528;7.192;2022-10-16T02:13:35;4.07;;;1.80;;
18066;SDS011;9158;51.528;7.192;2022-10-16T02:14:09;2.20;;;1.67;;
18066;SDS011;9158;51.528;7.192;2022-10-16T02:14:41;1.65;;;1.55;;
18066;SDS011;9158;51.528;7.192;2022-10-16T02:15:13;4.68;;;2.00;;
18066;SDS011;9158;51.528;7.192;2022-10-16T02:15:44;3.28;;;2.05;;
18066;SDS011;9158;51.528;7.192;2022-10-16T02:16:14;1.38;;;1.25;;
18066;SDS011;9158;51.528;7.192;2022-10-16T02:16:47;2.15;;;1.73;;
18066;SDS011;9158;51.528;7.192;2022-10-16T02:17:18;2.35;;;1.75;;
18066;SDS011;9158;51.528;7.192;2022-10-16T02:17:50;3.65;;;1.70;;
18066;SDS011;9158;51.528;7.192;2022-10-16T02:18:21;2.17;;;2.00;;
18066;SDS011;9158;51.528;7.192;2022-10-16T02:18:53;2.28;;;1.80;;
18066;SDS011;9158;51.528;7.192;2022-10-16T02:19:24;1.90;;;1.80;;
18066;SDS011;9158;51.528;7.192;2022-10-16T02:19:55;1.65;;;1.55;;
18066;SDS011;9158;51.528;7.192;2022-10-16T02:20:28;2.30;;;1.95;;
18066;SDS011;9158;51.528;7.192;2022-10-16T02:21:06;2.90;;;1.70;;
18066;SDS011;9158;51.528;7.192;2022-10-16T02:21:48;3.67;;;1.60;;
18066;SDS011;9158;51.528;7.192;2022-10-16T02:22:25;2.70;;;1.92;;
18066;SDS011;9158;51.528;7.192;2022-10-16T02:22:59;2.35;;;1.25;;
18066;SDS011;9158;51.528;7.192;2022-10-16T02:23:35;2.45;;;1.83;;
18066;SDS011;9158;51.528;7.192;2022-10-16T02:24:13;1.80;;;1.42;;
18066;SDS011;9158;51.528;7.192;2022-10-16T02:24:51;1.90;;;1.35;;
18066;SDS011;9158;51.528;7.192;2022-10-16T02:25:28;1.55;;;1.38;;
18066;SDS011;9158;51.528;7.192;2022-10-16T02:26:03;4.07;;;1.75;;
18066;SDS011;9158;51.528;7.192;2022-10-16T02:26:42;3.60;;;1.55;;
18066;SDS011;9158;51.528;7.192;2022-10-16T02:27:19;2.33;;;1.73;;
18066;SDS011;9158;51.528;7.192;2022-10-16T02:27:57;1.40;;;1.30;;
18066;SDS011;9158;51.528;7.192;2022-10-16T02:28:35;5.13;;;1.63;;
18066;SDS011;9158;51.528;7.192;2022-10-16T02:29:12;1.77;;;1.67;;
18066;SDS011;9158;51.528;7.192;2022-10-16T02:29:49;6.53;;;1.92;;
18066;SDS011;9158;51.528;7.192;2022-10-16T02:30:29;1.25;;;0.80;;
18066;SDS011;9158;51.528;7.192;2022-10-16T02:31:06;1.20;;;1.10;;
18066;SDS011;9158;51.528;7.192;2022-10-16T02:31:43;1.58;;;1.48;;
18066;SDS011;9158;51.528;7.192;2022-10-16T02:32:19;1.88;;;1.40;;
18066;SDS011;9158;51.528;7.192;2022-10-16T02:32:53;2.08;;;1.90;;
18066;SDS011;9158;51.528;7.192;2022-10-16T02:33:26;1.40;;;1.30;;
18066;SDS011;9158;51.528;7.192;2022-10-16T02:33:59;3.83;;;1.60;;
18066;SDS011;9158;51.528;7.192;2022-10-16T02:34:31;1.52;;;1.17;;
18066;SDS011;9158;51.528;7.192;2022-10-16T02:35:05;2.42;;;1.40;;
18066;SDS011;9158;51.528;7.192;2022-10-16T02:35:38;2.22;;;1.40;;
18066;SDS011;9158;51.528;7.192;2022-10-16T02:36:10;3.65;;;1.67;;
18066;SDS011;9158;51.528;7.192;2022-10-16T02:36:42;1.50;;;1.40;;
18066;SDS011;9158;51.528;7.192;2022-10-16T02:37:15;1.75;;;1.50;;
18066;SDS011;9158;51.528;7.192;2022-10-16T02:37:47;1.60;;;1.50;;
18066;SDS011;9158;51.528;7.192;2022-10-16T02:38:21;2.45;;;1.30;;
18066;SDS011;9158;51.528;7.192;2022-10-16T02:38:53;2.88;;;1.40;;
18066;SDS011;9158;51.528;7.192;2022-10-16T02:39:24;1.60;;;1.50;;
18066;SDS011;9158;51.528;7.192;2022-10-16T02:39:58;2.15;;;1.50;;
18066;SDS011;9158;51.528;7.192;2022-10-16T02:40:29;3.03;;;2.72;;
18066;SDS011;9158;51.528;7.192;2022-10-16T02:41:00;3.60;;;1.50;;
18066;SDS011;9158;51.528;7.192;2022-10-16T02:41:31;4.55;;;1.80;;
18066;SDS011;9158;51.528;7.192;2022-10-16T02:42:04;2.08;;;1.67;;
18066;SDS011;9158;51.528;7.192;2022-10-16T02:42:35;3.30;;;1.80;;
18066;SDS011;9158;51.528;7.192;2022-10-16T02:43:07;1.60;;;1.42;;
18066;SDS011;9158;51.528;7.192;2022-10-16T02:43:42;2.40;;;1.40;;
18066;SDS011;9158;51.528;7.192;2022-10-16T02:44:13;1.88;;;1.65;;
18066;SDS011;9158;51.528;7.192;2022-10-16T02:44:43;1.60;;;1.50;;
18066;SDS011;9158;51.528;7.192;2022-10-16T02:45:15;1.60;;;1.50;;
18066;SDS011;9158;51.528;7.192;2022-10-16T02:45:47;1.60;;;1.50;;
18066;SDS011;9158;51.528;7.192;2022-10-16T02:46:18;3.73;;;1.97;;
18066;SDS011;9158;51.528;7.192;2022-10-16T02:46:50;1.67;;;1.58;;
18066;SDS011;9158;51.528;7.192;2022-10-16T02:47:21;1.93;;;1.63;;
18066;SDS011;9158;51.528;7.192;2022-10-16T02:47:52;1.80;;;1.60;;
18066;SDS011;9158;51.528;7.192;2022-10-16T02:48:24;1.55;;;1.45;;
18066;SDS011;9158;51.528;7.192;2022-10-16T02:48:55;1.48;;;1.30;;
18066;SDS011;9158;51.528;7.192;2022-10-16T02:49:26;2.70;;;1.30;;
18066;SDS011;9158;51.528;7.192;2022-10-16T02:49:58;3.22;;;1.75;;
18066;SDS011;9158;51.528;7.192;2022-10-16T02:50:28;5.50;;;1.83;;
18066;SDS011;9158;51.528;7.192;2022-10-16T02:50:59;1.90;;;1.80;;
18066;SDS011;9158;51.528;7.192;2022-10-16T02:51:31;1.80;;;1.70;;
18066;SDS011;9158;51.528;7.192;2022-10-16T02:52:02;1.87;;;1.77;;
18066;SDS011;9158;51.528;7.192;2022-10-16T02:52:34;3.53;;;1.20;;
18066;SDS011;9158;51.528;7.192;2022-10-16T02:53:06;1.70;;;1.58;;
18066;SDS011;9158;51.528;7.192;2022-10-16T02:53:36;1.93;;;1.83;;
18066;SDS011;9158;51.528;7.192;2022-10-16T02:54:08;4.22;;;1.25;;
18066;SDS011;9158;51.528;7.192;2022-10-16T02:54:39;2.28;;;1.73;;
18066;SDS011;9158;51.528;7.192;2022-10-16T02:55:10;1.63;;;1.43;;
18066;SDS011;9158;51.528;7.192;2022-10-16T02:55:41;2.10;;;1.50;;
18066;SDS011;9158;51.528;7.192;2022-10-16T02:56:13;1.70;;;1.60;;
18066;SDS011;9158;51.528;7.192;2022-10-16T02:56:44;2.30;;;1.70;;
18066;SDS011;9158;51.528;7.192;2022-10-16T02:57:15;4.30;;;1.93;;
18066;SDS011;9158;51.528;7.192;2022-10-16T02:57:47;3.05;;;1.63;;
18066;SDS011;9158;51.528;7.192;2022-10-16T02:58:18;3.47;;;2.17;;
18066;SDS011;9158;51.528;7.192;2022-10-16T02:58:50;1.87;;;1.67;;
18066;SDS011;9158;51.528;7.192;2022-10-16T02:59:22;4.60;;;1.90;;
18066;SDS011;9158;51.528;7.192;2022-10-16T02:59:53;1.30;;;1.20;;
18066;SDS011;9158;51.528;7.192;2022-10-16T03:00:24;1.40;;;1.30;;
18066;SDS011;9158;51.528;7.192;2022-10-16T03:00:56;1.83;;;1.50;;
18066;SDS011;9158;51.528;7.192;2022-10-16T03:01:27;1.50;;;1.40;;
18066;SDS011;9158;51.528;7.192;2022-10-16T03:01:58;2.87;;;1.80;;
18066;SDS011;9158;51.528;7.192;2022-10-16T03:02:29;9.20;;;1.90;;
18066;SDS011;9158;51.528;7.192;2022-10-16T03:03:00;1.75;;;1.55;;
18066;SDS011;9158;51.528;7.192;2022-10-16T03:03:31;1.40;;;1.30;;
18066;SDS011;9158;51.528;7.192;2022-10-16T03:04:02;3.20;;;1.40;;
18066;SDS011;9158;51.528;7.192;2022-10-16T03:04:34;2.97;;;1.65;;
18066;SDS011;9158;51.528;7.192;2022-10-16T03:05:06;1.95;;;1.20;;
18066;SDS011;9158;51.528;7.192;2022-10-16T03:05:37;2.40;;;1.30;;
18066;SDS011;9158;51.528;7.192;2022-10-16T03:06:09;2.38;;;1.63;;
18066;SDS011;9158;51.528;7.192;2022-10-16T03:06:40;2.47;;;1.50;;
18066;SDS011;9158;51.528;7.192;2022-10-16T03:07:11;1.30;;;1.10;;
18066;SDS011;9158;51.528;7.192;2022-10-16T03:07:43;3.63;;;2.00;;
18066;SDS011;9158;51.528;7.192;2022-10-16T03:08:14;2.63;;;1.60;;
18066;SDS011;9158;51.528;7.192;2022-10-16T03:08:45;2.70;;;2.03;;
18066;SDS011;9158;51.528;7.192;2022-10-16T03:09:17;4.70;;;1.80;;
18066;SDS011;9158;51.528;7.192;2022-10-16T03:09:47;2.13;;;1.77;;
18066;SDS011;9158;51.528;7.192;2022-10-16T03:10:18;1.63;;;1.40;;
18066;SDS011;9158;51.528;7.192;2022-10-16T03:10:51;2.38;;;1.30;;
18066;SDS011;9158;51.528;7.192;2022-10-16T03:11:22;1.60;;;1.50;;
18066;SDS011;9158;51.528;7.192;2022-10-16T03:11:53;1.90;;;1.40;;
18066;SDS011;9158;51.528;7.192;2022-10-16T03:12:24;1.40;;;1.30;;
18066;SDS011;9158;51.528;7.192;2022-10-16T03:12:56;1.40;;;1.30;;
18066;SDS011;9158;51.528;7.192;2022-10-16T03:13:26;1.33;;;1.23;;
18066;SDS011;9158;51.528;7.192;2022-10-16T03:13:59;1.40;;;1.30;;
18066;SDS011;9158;51.528;7.192;2022-10-16T03:14:31;1.77;;;1.50;;
18066;SDS011;9158;51.528;7.192;2022-10-16T03:15:02;2.57;;;2.30;;
18066;SDS011;9158;51.528;7.192;2022-10-16T03:15:33;3.10;;;1.60;;
18066;SDS011;9158;51.528;7.192;2022-10-16T03:16:05;0.90;;;0.90;;
18066;SDS011;9158;51.528;7.192;2022-10-16T03:16:36;1.50;;;1.40;;
18066;SDS011;9158;51.528;7.192;2022-10-16T03:17:07;3.38;;;1.52;;
18066;SDS011;9158;51.528;7.192;2022-10-16T03:17:38;1.45;;;1.35;;
18066;SDS011;9158;51.528;7.192;2022-10-16T03:18:10;1.67;;;1.58;;
18066;SDS011;9158;51.528;7.192;2022-10-16T03:18:41;1.40;;;1.30;;
18066;SDS011;9158;51.528;7.192;2022-10-16T03:19:12;1.43;;;1.20;;
18066;SDS011;9158;51.528;7.192;2022-10-16T03:19:43;3.38;;;1.50;;
18066;SDS011;9158;51.528;7.192;2022-10-16T03:20:15;2.85;;;1.38;;
18066;SDS011;9158;51.528;7.192;2022-10-16T03:20:46;3.07;;;1.33;;
18066;SDS011;9158;51.528;7.192;2022-10-16T03:21:17;1.80;;;1.15;;
18066;SDS011;9158;51.528;7.192;2022-10-16T03:21:48;7.63;;;1.60;;
18066;SDS011;9158;51.528;7.192;2022-10-16T03:22:19;1.43;;;1.33;;
18066;SDS011;9158;51.528;7.192;2022-10-16T03:22:51;2.55;;;1.42;;
18066;SDS011;9158;51.528;7.192;2022-10-16T03:23:22;5.30;;;1.33;;
18066;SDS011;9158;51.528;7.192;2022-10-16T03:23:53;1.53;;;1.43;;
18066;SDS011;9158;51.528;7.192;2022-10-16T03:24:25;1.40;;;1.20;;
18066;SDS011;9158;51.528;7.192;2022-10-16T03:24:56;4.90;;;1.70;;
18066;SDS011;9158;51.528;7.192;2022-10-16T03:25:27;2.43;;;1.63;;
18066;SDS011;9158;51.528;7.192;2022-10-16T03:25:59;1.45;;;1.35;;
18066;SDS011;9158;51.528;7.192;2022-10-16T03:26:30;1.90;;;1.75;;
18066;SDS011;9158;51.528;7.192;2022-10-16T03:27:01;1.37;;;1.20;;
18066;SDS011;9158;51.528;7.192;2022-10-16T03:27:32;1.88;;;1.77;;
18066;SDS011;9158;51.528;7.192;2022-10-16T03:28:03;4.10;;;3.53;;
18066;SDS011;9158;51.528;7.192;2022-10-16T03:28:34;14.30;;;8.90;;
18066;SDS011;9158;51.528;7.192;2022-10-16T03:29:08;13.55;;;9.15;;